Time;durP1;ratioP1;P1;durP2;ratioP2;P2;SDS_P1;SDS_P2;PMS_P1;PMS_P2;Temp;Humidity;BMP_temperature;BMP_pressure;BME280_temperature;BME280_humidity;BME280_pressure;Samples;Min_cycle;Max_cycle;Signal;HPM_P1;HPM_P2
2021/09/10 00:01:27;;;;;;;16.90;15.23;;;;;;;;;;5076626;28;20016;-77
2021/09/10 00:03:53;;;;;;;16.77;14.82;;;;;;;;;;5075835;28;20509;-78
2021/09/10 00:06:20;;;;;;;15.77;14.20;;;;;;;;;;5076276;28;20097;-78
2021/09/10 00:08:46;;;;;;;16.23;14.52;;;;;;;;;;5076046;28;20029;-77
2021/09/10 00:11:12;;;;;;;15.27;13.77;;;;;;;;;;5075884;28;20444;-77
2021/09/10 00:13:38;;;;;;;18.35;14.88;;;;;;;;;;5076207;28;20082;-78
2021/09/10 00:16:04;;;;;;;17.52;13.60;;;;;;;;;;5075741;28;20086;-77
2021/09/10 00:18:30;;;;;;;18.40;14.52;;;;;;;;;;5076056;28;20032;-77
2021/09/10 00:20:56;;;;;;;15.40;13.90;;;;;;;;;;5076045;28;20025;-77
2021/09/10 00:23:23;;;;;;;15.60;13.93;;;;;;;;;;5076120;28;20062;-77
2021/09/10 00:25:49;;;;;;;15.10;13.60;;;;;;;;;;5075790;28;20024;-78
2021/09/10 00:28:15;;;;;;;19.75;13.48;;;;;;;;;;5076022;28;20103;-77
2021/09/10 00:30:41;;;;;;;16.52;14.80;;;;;;;;;;5076349;28;20377;-77
2021/09/10 00:33:07;;;;;;;14.70;12.88;;;;;;;;;;5075893;28;20433;-77
2021/09/10 00:35:33;;;;;;;15.13;12.93;;;;;;;;;;5075620;28;20028;-77
2021/09/10 00:37:59;;;;;;;14.30;12.70;;;;;;;;;;5075429;28;20024;-78
2021/09/10 00:40:25;;;;;;;16.45;13.77;;;;;;;;;;5075385;28;20503;-77
2021/09/10 00:42:51;;;;;;;15.80;12.55;;;;;;;;;;5076125;28;20024;-77
2021/09/10 00:45:17;;;;;;;14.82;13.30;;;;;;;;;;5075627;28;20060;-77
2021/09/10 00:47:43;;;;;;;15.48;13.75;;;;;;;;;;5075223;28;20024;-77
2021/09/10 00:50:10;;;;;;;14.95;13.07;;;;;;;;;;5075970;28;20445;-77
2021/09/10 00:52:36;;;;;;;15.48;13.98;;;;;;;;;;5075224;28;20405;-77
2021/09/10 00:55:02;;;;;;;14.73;13.23;;;;;;;;;;5075108;28;20415;-77
2021/09/10 00:57:28;;;;;;;14.40;12.95;;;;;;;;;;5075664;28;20032;-77
2021/09/10 00:59:54;;;;;;;15.40;12.90;;;;;;;;;;5074863;28;20462;-77
2021/09/10 01:02:20;;;;;;;13.70;12.25;;;;;;;;;;5075303;28;20466;-77
2021/09/10 01:04:46;;;;;;;15.48;12.20;;;;;;;;;;5075103;28;20481;-77
2021/09/10 01:07:12;;;;;;;19.13;12.25;;;;;;;;;;5074885;28;20364;-77
2021/09/10 01:09:38;;;;;;;14.55;13.15;;;;;;;;;;5074846;28;20040;-78
2021/09/10 01:12:04;;;;;;;16.92;12.73;;;;;;;;;;5074885;28;20023;-77
2021/09/10 01:14:30;;;;;;;16.63;12.48;;;;;;;;;;5075055;28;20029;-77
2021/09/10 01:16:57;;;;;;;14.10;12.80;;;;;;;;;;5074909;28;20067;-77
2021/09/10 01:19:24;;;;;;;13.95;12.52;;;;;;;;;;5074734;28;20074;-77
2021/09/10 01:21:51;;;;;;;14.05;12.55;;;;;;;;;;5074733;28;20025;-77
2021/09/10 01:24:17;;;;;;;14.77;13.10;;;;;;;;;;5074766;28;20028;-78
2021/09/10 01:26:43;;;;;;;13.93;11.80;;;;;;;;;;5074858;28;20029;-77
2021/09/10 01:29:09;;;;;;;13.68;11.65;;;;;;;;;;5074658;28;20046;-77
2021/09/10 01:31:35;;;;;;;11.77;10.57;;;;;;;;;;5074938;28;20024;-77
2021/09/10 01:34:01;;;;;;;13.63;12.32;;;;;;;;;;5074294;28;20067;-77
2021/09/10 01:36:27;;;;;;;12.40;10.75;;;;;;;;;;5074279;28;20423;-77
2021/09/10 01:38:54;;;;;;;11.65;10.55;;;;;;;;;;5074263;28;20021;-77
2021/09/10 01:41:20;;;;;;;12.80;11.40;;;;;;;;;;5074549;28;20052;-77
2021/09/10 01:43:46;;;;;;;12.60;11.30;;;;;;;;;;5074381;28;20074;-77
2021/09/10 01:46:12;;;;;;;13.10;11.57;;;;;;;;;;5074708;28;20020;-77
2021/09/10 01:48:38;;;;;;;13.02;11.27;;;;;;;;;;5074558;28;20559;-77
2021/09/10 01:51:04;;;;;;;13.13;11.73;;;;;;;;;;5074368;28;20032;-77
2021/09/10 01:53:31;;;;;;;13.35;12.02;;;;;;;;;;5074003;28;20496;-76
2021/09/10 01:55:57;;;;;;;11.55;10.45;;;;;;;;;;5073555;28;20056;-76
2021/09/10 01:58:23;;;;;;;12.93;11.73;;;;;;;;;;5074813;28;20025;-77
2021/09/10 02:00:50;;;;;;;12.25;11.10;;;;;;;;;;5074066;28;20576;-77
2021/09/10 02:03:16;;;;;;;12.88;11.43;;;;;;;;;;5073692;28;20413;-77
2021/09/10 02:05:42;;;;;;;12.30;11.10;;;;;;;;;;5073827;28;20020;-77
2021/09/10 02:08:08;;;;;;;12.52;11.23;;;;;;;;;;5073654;28;20031;-77
2021/09/10 02:10:34;;;;;;;12.27;11.02;;;;;;;;;;5073362;28;20098;-77
2021/09/10 02:13:00;;;;;;;13.98;10.90;;;;;;;;;;5073589;28;20428;-77
2021/09/10 02:15:26;;;;;;;12.32;11.07;;;;;;;;;;5073871;28;20036;-77
2021/09/10 02:17:53;;;;;;;12.13;10.57;;;;;;;;;;5073378;28;20056;-77
2021/09/10 02:20:19;;;;;;;11.65;10.45;;;;;;;;;;5073993;28;20032;-76
2021/09/10 02:22:45;;;;;;;14.00;11.35;;;;;;;;;;5073712;28;20016;-77
2021/09/10 02:25:11;;;;;;;11.50;10.43;;;;;;;;;;5073561;28;20031;-77
2021/09/10 02:27:37;;;;;;;11.43;10.32;;;;;;;;;;5073873;28;20508;-76
2021/09/10 02:30:04;;;;;;;14.15;10.38;;;;;;;;;;5073387;28;20537;-76
2021/09/10 02:32:30;;;;;;;14.88;11.32;;;;;;;;;;5074079;28;20051;-76
2021/09/10 02:34:56;;;;;;;11.88;10.77;;;;;;;;;;5073442;28;20025;-76
2021/09/10 02:37:22;;;;;;;12.43;11.23;;;;;;;;;;5073311;28;20082;-77
2021/09/10 02:39:48;;;;;;;11.27;10.27;;;;;;;;;;5073084;28;20032;-76
2021/09/10 02:42:14;;;;;;;12.52;10.70;;;;;;;;;;5074130;28;20028;-76
2021/09/10 02:44:40;;;;;;;13.30;11.25;;;;;;;;;;5073480;28;20028;-76
2021/09/10 02:47:07;;;;;;;16.65;11.70;;;;;;;;;;5073606;28;20059;-76
2021/09/10 02:49:33;;;;;;;11.57;10.43;;;;;;;;;;5073447;28;20373;-76
2021/09/10 02:51:59;;;;;;;11.35;10.30;;;;;;;;;;5072910;28;20028;-77
2021/09/10 02:54:25;;;;;;;14.32;11.55;;;;;;;;;;5073321;28;20028;-76
2021/09/10 02:56:51;;;;;;;13.50;10.30;;;;;;;;;;5073491;28;20138;-77
2021/09/10 02:59:17;;;;;;;10.80;9.70;;;;;;;;;;5073679;28;20031;-76
2021/09/10 03:01:44;;;;;;;16.20;10.98;;;;;;;;;;5073099;28;20024;-76
2021/09/10 03:04:11;;;;;;;14.77;10.70;;;;;;;;;;5073639;28;20036;-76
2021/09/10 03:06:37;;;;;;;18.60;10.43;;;;;;;;;;5073072;28;20120;-76
2021/09/10 03:09:03;;;;;;;14.18;10.82;;;;;;;;;;5073198;28;20029;-76
2021/09/10 03:11:29;;;;;;;12.20;10.13;;;;;;;;;;5073224;28;20478;-76
2021/09/10 03:13:55;;;;;;;11.45;9.95;;;;;;;;;;5072969;28;20028;-75
2021/09/10 03:16:21;;;;;;;13.63;9.40;;;;;;;;;;5072784;28;20493;-76
2021/09/10 03:18:48;;;;;;;11.80;9.32;;;;;;;;;;5072987;28;20460;-75
2021/09/10 03:21:14;;;;;;;22.63;14.27;;;;;;;;;;5072961;28;20031;-76
2021/09/10 03:23:40;;;;;;;25.45;16.38;;;;;;;;;;5075625;28;20017;-76
2021/09/10 03:26:06;;;;;;;19.30;13.43;;;;;;;;;;5077321;28;20063;-76
2021/09/10 03:28:32;;;;;;;24.17;16.30;;;;;;;;;;5076963;28;20025;-76
2021/09/10 03:30:58;;;;;;;28.45;16.52;;;;;;;;;;5077170;28;20512;-76
2021/09/10 03:33:24;;;;;;;20.80;12.13;;;;;;;;;;5076745;28;20420;-76
2021/09/10 03:35:50;;;;;;;21.35;14.10;;;;;;;;;;5076722;28;20055;-76
2021/09/10 03:38:16;;;;;;;22.30;12.75;;;;;;;;;;5077056;28;20059;-76
2021/09/10 03:40:42;;;;;;;21.65;12.95;;;;;;;;;;5077427;28;20026;-75
2021/09/10 03:43:09;;;;;;;18.98;13.20;;;;;;;;;;5077191;28;20035;-75
2021/09/10 03:45:35;;;;;;;17.95;13.68;;;;;;;;;;5076460;28;20478;-76
2021/09/10 03:48:01;;;;;;;17.48;11.57;;;;;;;;;;5076178;28;20477;-76
2021/09/10 03:50:27;;;;;;;16.83;12.75;;;;;;;;;;5076707;28;20024;-76
2021/09/10 03:52:54;;;;;;;17.10;11.82;;;;;;;;;;5076268;28;20029;-76
2021/09/10 03:55:20;;;;;;;20.40;10.77;;;;;;;;;;5076262;28;20079;-75
2021/09/10 03:57:46;;;;;;;19.45;12.90;;;;;;;;;;5076588;28;20025;-75
2021/09/10 04:00:12;;;;;;;17.13;11.95;;;;;;;;;;5076986;28;20025;-76
2021/09/10 04:02:38;;;;;;;21.58;16.35;;;;;;;;;;5076500;28;20046;-76
2021/09/10 04:05:05;;;;;;;18.98;13.25;;;;;;;;;;5076459;28;20024;-76
2021/09/10 04:07:31;;;;;;;18.23;12.90;;;;;;;;;;5075867;28;20118;-76
2021/09/10 04:09:57;;;;;;;19.58;13.23;;;;;;;;;;5076148;28;20035;-76
2021/09/10 04:12:23;;;;;;;16.58;12.73;;;;;;;;;;5076707;28;20077;-76
2021/09/10 04:14:49;;;;;;;13.93;11.90;;;;;;;;;;5076632;28;20024;-76
2021/09/10 04:17:15;;;;;;;22.02;12.13;;;;;;;;;;5076117;28;20035;-76
2021/09/10 04:19:41;;;;;;;15.35;11.02;;;;;;;;;;5075726;28;20066;-77
2021/09/10 04:22:07;;;;;;;16.30;12.68;;;;;;;;;;5075957;28;20033;-76
2021/09/10 04:24:33;;;;;;;14.43;11.90;;;;;;;;;;5076120;28;20064;-76
2021/09/10 04:26:59;;;;;;;11.57;10.32;;;;;;;;;;5075860;28;20047;-76
2021/09/10 04:29:25;;;;;;;13.43;11.00;;;;;;;;;;5076147;28;20035;-76
2021/09/10 04:31:51;;;;;;;15.57;12.55;;;;;;;;;;5075707;28;20095;-76
2021/09/10 04:34:17;;;;;;;16.95;11.20;;;;;;;;;;5075401;28;20017;-75
2021/09/10 04:36:44;;;;;;;13.30;10.60;;;;;;;;;;5075412;28;20035;-76
2021/09/10 04:39:10;;;;;;;14.10;10.10;;;;;;;;;;5075799;28;20082;-76
2021/09/10 04:41:36;;;;;;;12.13;9.55;;;;;;;;;;5075584;28;20024;-76
2021/09/10 04:44:02;;;;;;;12.50;10.80;;;;;;;;;;5075466;28;20071;-75
2021/09/10 04:46:28;;;;;;;14.77;10.68;;;;;;;;;;5075442;28;20543;-76
2021/09/10 04:48:54;;;;;;;16.95;10.68;;;;;;;;;;5075641;28;20028;-75
2021/09/10 04:51:20;;;;;;;11.40;9.10;;;;;;;;;;5075114;28;20074;-75
2021/09/10 04:53:46;;;;;;;15.65;10.40;;;;;;;;;;5074146;28;20414;-75
2021/09/10 04:56:12;;;;;;;11.85;10.07;;;;;;;;;;5075128;28;20083;-75
2021/09/10 04:58:38;;;;;;;18.98;12.00;;;;;;;;;;5075532;28;20028;-74
2021/09/10 05:01:04;;;;;;;15.77;11.48;;;;;;;;;;5075070;28;20025;-75
2021/09/10 05:03:31;;;;;;;11.55;10.35;;;;;;;;;;5074943;28;20020;-75
2021/09/10 05:05:57;;;;;;;13.82;10.40;;;;;;;;;;5074171;28;20025;-74
2021/09/10 05:08:23;;;;;;;11.57;9.73;;;;;;;;;;5075067;28;20048;-76
2021/09/10 05:10:49;;;;;;;11.70;10.27;;;;;;;;;;5075405;28;20029;-77
2021/09/10 05:13:15;;;;;;;11.75;10.15;;;;;;;;;;5074597;28;20017;-76
2021/09/10 05:15:41;;;;;;;25.27;10.90;;;;;;;;;;5074719;28;20028;-77
2021/09/10 05:18:07;;;;;;;17.27;9.65;;;;;;;;;;5074255;28;20074;-75
2021/09/10 05:20:33;;;;;;;11.68;10.07;;;;;;;;;;5074514;28;20029;-75
2021/09/10 05:22:59;;;;;;;11.65;10.45;;;;;;;;;;5074709;28;20031;-76
2021/09/10 05:25:25;;;;;;;18.83;9.02;;;;;;;;;;5074617;28;20048;-75
2021/09/10 05:27:52;;;;;;;14.15;9.68;;;;;;;;;;5074169;28;20054;-78
2021/09/10 05:30:18;;;;;;;16.85;9.48;;;;;;;;;;5074067;28;20033;-80
2021/09/10 05:32:44;;;;;;;20.15;8.82;;;;;;;;;;5074503;28;20074;-78
2021/09/10 05:35:10;;;;;;;10.90;9.80;;;;;;;;;;5072107;28;20020;-76
2021/09/10 05:37:36;;;;;;;12.68;8.13;;;;;;;;;;5074122;28;20029;-76
2021/09/10 05:40:03;;;;;;;16.08;8.70;;;;;;;;;;5074168;28;20052;-75
2021/09/10 05:42:29;;;;;;;12.73;8.15;;;;;;;;;;5074019;28;20071;-77
2021/09/10 05:44:55;;;;;;;9.27;8.13;;;;;;;;;;5074720;28;20111;-77
2021/09/10 05:47:21;;;;;;;10.15;8.80;;;;;;;;;;5076909;28;20025;-77
2021/09/10 05:49:47;;;;;;;10.68;8.48;;;;;;;;;;5074730;28;20107;-78
2021/09/10 05:52:13;;;;;;;27.58;8.43;;;;;;;;;;5072815;28;20567;-76
2021/09/10 05:54:40;;;;;;;11.00;7.03;;;;;;;;;;5072897;28;20397;-76
2021/09/10 05:57:06;;;;;;;10.38;8.57;;;;;;;;;;5074047;28;20056;-75
2021/09/10 05:59:32;;;;;;;11.65;7.53;;;;;;;;;;5074161;28;20025;-77
2021/09/10 06:01:58;;;;;;;12.70;9.15;;;;;;;;;;5073340;28;20112;-77
2021/09/10 06:04:24;;;;;;;10.15;8.50;;;;;;;;;;5073437;28;20021;-80
2021/09/10 06:06:50;;;;;;;11.15;8.60;;;;;;;;;;5073275;28;20016;-77
2021/09/10 06:09:16;;;;;;;9.20;8.32;;;;;;;;;;5073200;28;20031;-78
2021/09/10 06:11:43;;;;;;;9.57;7.13;;;;;;;;;;5072945;28;20017;-80
2021/09/10 06:14:09;;;;;;;10.60;8.48;;;;;;;;;;5073163;28;20058;-78
2021/09/10 06:16:35;;;;;;;13.60;7.07;;;;;;;;;;5072639;28;20032;-79
2021/09/10 06:19:01;;;;;;;9.18;8.25;;;;;;;;;;5072058;28;20166;-79
2021/09/10 06:21:27;;;;;;;13.57;8.23;;;;;;;;;;5071202;28;20025;-78
2021/09/10 06:23:54;;;;;;;8.23;7.43;;;;;;;;;;5071623;28;20055;-78
2021/09/10 06:26:22;;;;;;;8.90;7.88;;;;;;;;;;5071718;28;20040;-78
2021/09/10 06:28:49;;;;;;;8.82;7.93;;;;;;;;;;5072347;28;20374;-78
2021/09/10 06:31:15;;;;;;;14.98;7.30;;;;;;;;;;5072590;28;20025;-79
2021/09/10 06:33:41;;;;;;;8.23;7.00;;;;;;;;;;5071514;28;20020;-78
2021/09/10 06:36:07;;;;;;;8.48;7.32;;;;;;;;;;5072174;28;20032;-79
2021/09/10 06:38:33;;;;;;;9.32;7.72;;;;;;;;;;5073509;28;20021;-78
2021/09/10 06:40:59;;;;;;;8.35;7.55;;;;;;;;;;5073059;28;20539;-77
2021/09/10 06:43:25;;;;;;;10.30;7.43;;;;;;;;;;5072956;28;20032;-78
2021/09/10 06:45:51;;;;;;;23.83;7.25;;;;;;;;;;5073042;28;20028;-77
2021/09/10 06:48:17;;;;;;;7.78;7.07;;;;;;;;;;5071061;28;20027;-76
2021/09/10 06:50:43;;;;;;;7.95;7.15;;;;;;;;;;5071934;28;20115;-77
2021/09/10 06:53:09;;;;;;;10.60;7.40;;;;;;;;;;5072523;28;20023;-77
2021/09/10 06:55:35;;;;;;;8.75;7.90;;;;;;;;;;5072063;28;20541;-77
2021/09/10 06:58:01;;;;;;;10.75;8.40;;;;;;;;;;5072462;28;20035;-76
2021/09/10 07:00:28;;;;;;;9.07;8.18;;;;;;;;;;5072617;28;20059;-77
2021/09/10 07:02:54;;;;;;;13.55;8.60;;;;;;;;;;5073342;28;20033;-77
2021/09/10 07:05:20;;;;;;;10.95;8.57;;;;;;;;;;5071771;28;20052;-77
2021/09/10 07:07:46;;;;;;;11.48;7.55;;;;;;;;;;5073121;28;20063;-78
2021/09/10 07:10:12;;;;;;;9.68;8.25;;;;;;;;;;5073623;28;20466;-76
2021/09/10 07:12:38;;;;;;;11.13;8.02;;;;;;;;;;5071927;28;20536;-78
2021/09/10 07:15:05;;;;;;;13.43;8.30;;;;;;;;;;5075105;28;20029;-79
2021/09/10 07:17:32;;;;;;;17.20;8.85;;;;;;;;;;5072702;28;20402;-79
2021/09/10 07:19:59;;;;;;;7.72;6.90;;;;;;;;;;5074462;28;20350;-79
2021/09/10 07:22:25;;;;;;;8.82;7.32;;;;;;;;;;5074935;28;20028;-79
2021/09/10 07:24:51;;;;;;;8.48;7.60;;;;;;;;;;5073929;28;20017;-81
2021/09/10 07:27:17;;;;;;;9.07;8.15;;;;;;;;;;5072496;28;20062;-78
2021/09/10 07:29:43;;;;;;;20.42;8.32;;;;;;;;;;5072901;28;20037;-79
2021/09/10 07:32:09;;;;;;;9.30;7.88;;;;;;;;;;5073189;28;20035;-78
2021/09/10 07:34:35;;;;;;;14.70;8.10;;;;;;;;;;5072296;28;20385;-78
2021/09/10 07:37:01;;;;;;;9.27;8.00;;;;;;;;;;5074635;28;20032;-83
2021/09/10 07:39:27;;;;;;;8.38;7.57;;;;;;;;;;5076052;28;20107;-78
2021/09/10 07:41:53;;;;;;;8.80;7.47;;;;;;;;;;5074215;28;20024;-83
2021/09/10 07:44:19;;;;;;;12.32;8.40;;;;;;;;;;5073251;28;20078;-79
2021/09/10 07:46:46;;;;;;;9.75;8.80;;;;;;;;;;5071294;28;20033;-79
2021/09/10 07:49:12;;;;;;;11.25;7.82;;;;;;;;;;5072580;28;20028;-77
2021/09/10 07:51:38;;;;;;;8.85;7.78;;;;;;;;;;5074306;28;20039;-79
2021/09/10 07:54:05;;;;;;;7.40;6.70;;;;;;;;;;5072665;28;20507;-80
2021/09/10 07:56:31;;;;;;;7.57;6.78;;;;;;;;;;5072947;28;20098;-78
2021/09/10 07:58:58;;;;;;;11.45;7.93;;;;;;;;;;5073417;28;20035;-77
2021/09/10 08:01:24;;;;;;;11.00;8.07;;;;;;;;;;5074826;28;20024;-81
2021/09/10 08:03:50;;;;;;;9.40;8.48;;;;;;;;;;5074510;28;20025;-80
2021/09/10 08:06:16;;;;;;;11.80;7.80;;;;;;;;;;5073212;28;20027;-87
2021/09/10 08:08:42;;;;;;;10.95;7.22;;;;;;;;;;5074959;28;20024;-90
2021/09/10 08:11:08;;;;;;;12.15;8.10;;;;;;;;;;5079676;28;20020;-79
2021/09/10 08:13:34;;;;;;;10.73;7.93;;;;;;;;;;5078362;28;20029;-88
2021/09/10 08:16:00;;;;;;;12.48;7.88;;;;;;;;;;5077717;28;20240;-86
2021/09/10 08:18:26;;;;;;;15.15;7.72;;;;;;;;;;5075538;28;20025;-79
2021/09/10 08:20:56;;;;;;;18.02;7.93;;;;;;;;;;5075537;28;20035;-86
2021/09/10 08:23:23;;;;;;;11.60;8.15;;;;;;;;;;5076358;28;20031;-83
2021/09/10 08:25:49;;;;;;;12.77;8.50;;;;;;;;;;5075702;28;20046;-84
2021/09/10 08:28:16;;;;;;;8.90;7.88;;;;;;;;;;5075685;28;20032;-90
2021/09/10 08:30:44;;;;;;;12.75;7.82;;;;;;;;;;5075330;28;20033;-85
2021/09/10 08:33:11;;;;;;;30.50;7.57;;;;;;;;;;5075673;28;20048;-78
2021/09/10 08:35:37;;;;;;;15.82;9.13;;;;;;;;;;5076300;28;20074;-78
2021/09/10 08:38:03;;;;;;;11.02;8.13;;;;;;;;;;5075084;28;20523;-75
2021/09/10 08:40:30;;;;;;;10.50;7.82;;;;;;;;;;5075736;28;20037;-80
2021/09/10 08:42:56;;;;;;;13.15;8.63;;;;;;;;;;5075223;28;20055;-76
2021/09/10 08:45:25;;;;;;;18.40;6.75;;;;;;;;;;5075018;28;20507;-78
2021/09/10 08:47:51;;;;;;;17.55;7.85;;;;;;;;;;5075405;28;20087;-76
2021/09/10 08:50:17;;;;;;;13.07;8.18;;;;;;;;;;5075196;28;20020;-76
2021/09/10 08:52:43;;;;;;;18.10;7.72;;;;;;;;;;5075145;28;20046;-76
2021/09/10 08:55:10;;;;;;;11.43;8.00;;;;;;;;;;5075024;28;20056;-76
2021/09/10 08:57:36;;;;;;;9.70;7.38;;;;;;;;;;5075051;28;20024;-77
2021/09/10 09:00:04;;;;;;;13.27;8.65;;;;;;;;;;5074789;28;20020;-78
2021/09/10 09:02:30;;;;;;;17.77;7.50;;;;;;;;;;5074069;28;20035;-79
2021/09/10 09:04:58;;;;;;;8.80;7.72;;;;;;;;;;5073530;28;20104;-79
2021/09/10 09:07:24;;;;;;;8.07;6.72;;;;;;;;;;5074394;28;20028;-81
2021/09/10 09:09:50;;;;;;;11.05;7.82;;;;;;;;;;5073168;28;20029;-78
2021/09/10 09:12:19;;;;;;;11.05;7.50;;;;;;;;;;5073732;28;20032;-81
2021/09/10 09:14:46;;;;;;;9.88;8.10;;;;;;;;;;5073499;28;20078;-78
2021/09/10 09:17:28;;;;;;;13.95;8.75;;;;;;;;;;5072945;28;20132;-76
2021/09/10 09:20:14;;;;;;;10.63;8.05;;;;;;;;;;5073163;28;20031;-78
2021/09/10 09:23:00;;;;;;;11.05;7.60;;;;;;;;;;5061013;28;20381;-80
2021/09/10 09:25:34;;;;;;;21.90;8.00;;;;;;;;;;5065535;28;20020;-79
2021/09/10 09:28:17;;;;;;;17.73;8.32;;;;;;;;;;5070921;28;20119;-77
2021/09/10 09:30:43;;;;;;;13.57;8.10;;;;;;;;;;5074654;28;20074;-79
2021/09/10 09:33:12;;;;;;;9.70;7.40;;;;;;;;;;5074611;28;20024;-78
2021/09/10 09:35:38;;;;;;;10.18;7.43;;;;;;;;;;5073250;28;20048;-79
2021/09/10 09:38:20;;;;;;;9.32;7.20;;;;;;;;;;5073842;28;20025;-76
2021/09/10 09:40:47;;;;;;;14.38;7.15;;;;;;;;;;5073900;28;20032;-76
2021/09/10 09:43:14;;;;;;;13.93;8.25;;;;;;;;;;5073891;28;20028;-72
2021/09/10 09:45:41;;;;;;;8.90;6.25;;;;;;;;;;5074074;28;20037;-84
2021/09/10 09:48:09;;;;;;;22.15;6.78;;;;;;;;;;5073886;28;20454;-76
2021/09/10 09:50:36;;;;;;;8.68;5.80;;;;;;;;;;5074014;28;20043;-73
2021/09/10 09:53:03;;;;;;;10.88;6.38;;;;;;;;;;5074118;28;20470;-73
2021/09/10 09:55:29;;;;;;;16.75;4.60;;;;;;;;;;5074017;28;20490;-73
2021/09/10 09:57:55;;;;;;;11.18;5.53;;;;;;;;;;5073255;28;20115;-73
2021/09/10 10:00:22;;;;;;;11.40;4.13;;;;;;;;;;5073886;28;20050;-72
2021/09/10 10:02:48;;;;;;;9.40;5.20;;;;;;;;;;5073558;28;20024;-74
2021/09/10 10:05:16;;;;;;;5.00;4.35;;;;;;;;;;5073547;28;20024;-75
2021/09/10 10:07:50;;;;;;;7.75;4.57;;;;;;;;;;5070534;28;20017;-75
2021/09/10 10:10:17;;;;;;;7.18;5.05;;;;;;;;;;5072754;28;20025;-78
2021/09/10 10:12:43;;;;;;;5.00;4.47;;;;;;;;;;5073728;28;20035;-73
2021/09/10 10:15:29;;;;;;;7.93;5.20;;;;;;;;;;5073776;28;20032;-75
2021/09/10 10:17:56;;;;;;;8.05;4.97;;;;;;;;;;5059013;28;20389;-76
2021/09/10 10:20:42;;;;;;;7.97;4.53;;;;;;;;;;5074112;28;20111;-75
2021/09/10 10:23:28;;;;;;;38.63;5.68;;;;;;;;;;5058555;28;20029;-72
2021/09/10 10:26:12;;;;;;;6.68;4.10;;;;;;;;;;5057881;28;20534;-75
2021/09/10 10:28:48;;;;;;;6.85;4.70;;;;;;;;;;5073028;28;20025;-74
2021/09/10 10:31:14;;;;;;;6.95;4.45;;;;;;;;;;5073092;28;20021;-72
2021/09/10 10:33:48;;;;;;;8.93;4.63;;;;;;;;;;5072632;28;20027;-85
2021/09/10 10:36:34;;;;;;;8.15;5.43;;;;;;;;;;5073250;28;20028;-72
2021/09/10 10:39:18;;;;;;;8.00;4.45;;;;;;;;;;5059183;28;20090;-73
2021/09/10 10:41:46;;;;;;;11.27;4.65;;;;;;;;;;5072834;28;20024;-74
2021/09/10 10:44:32;;;;;;;10.93;4.80;;;;;;;;;;5071979;28;20127;-73
2021/09/10 10:47:14;;;;;;;7.22;4.85;;;;;;;;;;5063732;28;20025;-76
2021/09/10 10:49:42;;;;;;;5.55;4.55;;;;;;;;;;5070484;28;20025;-73
2021/09/10 10:52:28;;;;;;;4.32;3.67;;;;;;;;;;5071663;28;20025;-73
2021/09/10 10:55:14;;;;;;;6.88;5.22;;;;;;;;;;5058556;28;20016;-75
2021/09/10 10:57:40;;;;;;;15.95;5.50;;;;;;;;;;5058223;28;20504;-71
2021/09/10 11:00:26;;;;;;;7.57;4.72;;;;;;;;;;5073791;28;20063;-73
2021/09/10 11:02:52;;;;;;;10.57;3.97;;;;;;;;;;5058127;28;20087;-73
2021/09/10 11:05:24;;;;;;;7.55;4.53;;;;;;;;;;5071719;28;20042;-75
2021/09/10 11:07:51;;;;;;;5.20;4.70;;;;;;;;;;5071332;28;20024;-77
2021/09/10 11:10:18;;;;;;;9.45;4.93;;;;;;;;;;5072052;28;20020;-76
2021/09/10 11:12:46;;;;;;;6.35;4.32;;;;;;;;;;5072193;28;20488;-76
2021/09/10 11:15:32;;;;;;;6.97;4.32;;;;;;;;;;5071324;28;20091;-76
2021/09/10 11:18:00;;;;;;;8.40;4.30;;;;;;;;;;5062880;28;20029;-79
2021/09/10 11:20:27;;;;;;;9.43;5.05;;;;;;;;;;5071764;28;20334;-75
2021/09/10 11:22:54;;;;;;;15.90;4.70;;;;;;;;;;5071638;28;20473;-73
2021/09/10 11:25:20;;;;;;;9.68;4.93;;;;;;;;;;5072007;28;20056;-74
2021/09/10 11:27:46;;;;;;;6.57;5.07;;;;;;;;;;5071155;28;20017;-78
2021/09/10 11:30:13;;;;;;;7.07;4.85;;;;;;;;;;5070850;28;20021;-75
2021/09/10 11:32:39;;;;;;;4.78;4.38;;;;;;;;;;5071355;28;20055;-78
2021/09/10 11:35:22;;;;;;;7.40;4.32;;;;;;;;;;5071592;28;20021;-75
2021/09/10 11:38:04;;;;;;;7.70;4.80;;;;;;;;;;5070405;28;20032;-74
2021/09/10 11:40:31;;;;;;;6.35;5.70;;;;;;;;;;5072500;28;20029;-73
2021/09/10 11:43:17;;;;;;;6.60;5.47;;;;;;;;;;5072470;28;20040;-73
2021/09/10 11:45:45;;;;;;;5.05;4.45;;;;;;;;;;5064061;28;20082;-75
2021/09/10 11:48:15;;;;;;;12.40;6.00;;;;;;;;;;5075283;28;20018;-74
2021/09/10 11:50:54;;;;;;;5.95;5.32;;;;;;;;;;5075345;28;20020;-76
2021/09/10 11:53:21;;;;;;;7.45;5.03;;;;;;;;;;5074944;28;20493;-75
2021/09/10 11:55:51;;;;;;;6.28;4.88;;;;;;;;;;5074457;28;20045;-74
2021/09/10 11:58:17;;;;;;;5.78;5.18;;;;;;;;;;5074141;28;20024;-76
2021/09/10 12:00:43;;;;;;;5.82;4.45;;;;;;;;;;5074887;28;20099;-76
2021/09/10 12:03:09;;;;;;;5.75;5.25;;;;;;;;;;5074995;28;20047;-77
2021/09/10 12:05:35;;;;;;;10.73;5.13;;;;;;;;;;5074859;28;20162;-78
2021/09/10 12:08:01;;;;;;;7.80;4.97;;;;;;;;;;5074574;28;20023;-77
2021/09/10 12:10:28;;;;;;;5.68;5.03;;;;;;;;;;5073749;28;20474;-78
2021/09/10 12:13:10;;;;;;;8.38;5.55;;;;;;;;;;5074447;28;20020;-77
2021/09/10 12:15:36;;;;;;;;;;;;;;;;;;5073260;28;20111;-77
2021/09/10 12:18:18;;;;;;;6.18;5.18;;;;;;;;;;5073844;28;20309;-78
2021/09/10 12:20:51;;;;;;;8.18;5.68;;;;;;;;;;5074746;28;20028;-78
2021/09/10 12:23:19;;;;;;;5.85;5.30;;;;;;;;;;5076102;28;20438;-77
2021/09/10 12:25:47;;;;;;;8.73;5.10;;;;;;;;;;5075050;28;20489;-76
2021/09/10 12:28:17;;;;;;;5.85;5.22;;;;;;;;;;5075142;28;20030;-79
2021/09/10 12:30:45;;;;;;;8.05;5.28;;;;;;;;;;5073500;28;20047;-79
2021/09/10 12:33:14;;;;;;;9.20;4.32;;;;;;;;;;5076169;28;20021;-78
2021/09/10 12:35:40;;;;;;;7.72;4.68;;;;;;;;;;5070510;28;20382;-73
2021/09/10 12:38:07;;;;;;;12.55;4.90;;;;;;;;;;5074889;28;20067;-73
2021/09/10 12:40:34;;;;;;;10.68;4.60;;;;;;;;;;5075853;28;20031;-72
2021/09/10 12:43:00;;;;;;;4.75;4.13;;;;;;;;;;5075722;28;20021;-71
2021/09/10 12:45:26;;;;;;;5.72;4.22;;;;;;;;;;5075101;28;20032;-71
2021/09/10 12:47:52;;;;;;;4.60;4.20;;;;;;;;;;5075192;28;20035;-72
2021/09/10 12:50:18;;;;;;;4.57;4.10;;;;;;;;;;5076235;28;20123;-72
2021/09/10 12:52:44;;;;;;;10.32;4.82;;;;;;;;;;5075699;28;20017;-73
2021/09/10 12:55:11;;;;;;;5.53;4.65;;;;;;;;;;5074331;28;20040;-73
2021/09/10 12:57:37;;;;;;;11.05;5.25;;;;;;;;;;5074552;28;20078;-77
2021/09/10 13:00:03;;;;;;;6.25;4.13;;;;;;;;;;5074913;28;20060;-76
2021/09/10 13:02:29;;;;;;;5.35;4.53;;;;;;;;;;5074097;28;20062;-82
2021/09/10 13:04:55;;;;;;;11.48;5.20;;;;;;;;;;5070436;28;20382;-78
2021/09/10 13:07:21;;;;;;;10.80;4.50;;;;;;;;;;5072391;28;20032;-79
2021/09/10 13:09:47;;;;;;;6.57;5.40;;;;;;;;;;5073860;28;20568;-75
2021/09/10 13:12:13;;;;;;;5.88;4.18;;;;;;;;;;5074981;28;20029;-76
2021/09/10 13:14:40;;;;;;;7.60;4.28;;;;;;;;;;5075643;28;20111;-83
2021/09/10 13:17:06;;;;;;;4.40;3.97;;;;;;;;;;5076593;28;20036;-79
2021/09/10 13:19:32;;;;;;;5.38;4.40;;;;;;;;;;5075301;28;20028;-77
2021/09/10 13:21:58;;;;;;;5.60;4.47;;;;;;;;;;5073727;28;20025;-74
2021/09/10 13:24:24;;;;;;;7.97;4.80;;;;;;;;;;5074112;28;20021;-74
2021/09/10 13:26:50;;;;;;;6.40;4.93;;;;;;;;;;5073556;28;20025;-74
2021/09/10 13:29:16;;;;;;;5.28;4.78;;;;;;;;;;5074299;28;20462;-78
2021/09/10 13:31:43;;;;;;;8.27;4.78;;;;;;;;;;5074895;28;20079;-74
2021/09/10 13:34:12;;;;;;;10.80;5.03;;;;;;;;;;5074194;28;20414;-73
2021/09/10 13:36:38;;;;;;;12.43;4.95;;;;;;;;;;5074764;28;20040;-80
2021/09/10 13:39:04;;;;;;;8.00;4.55;;;;;;;;;;5074482;28;20025;-75
2021/09/10 13:41:30;;;;;;;7.85;5.07;;;;;;;;;;5074935;28;20029;-75
2021/09/10 13:43:56;;;;;;;5.15;4.65;;;;;;;;;;5074098;28;20382;-72
2021/09/10 13:46:22;;;;;;;5.93;4.60;;;;;;;;;;5073820;28;20089;-77
2021/09/10 13:48:48;;;;;;;12.80;5.50;;;;;;;;;;5073241;28;20035;-74
2021/09/10 13:51:14;;;;;;;5.95;4.82;;;;;;;;;;5075053;28;20103;-75
2021/09/10 13:53:40;;;;;;;7.95;4.07;;;;;;;;;;5074638;28;20466;-78
2021/09/10 13:56:07;;;;;;;9.30;4.88;;;;;;;;;;5074813;28;20127;-77
2021/09/10 13:58:35;;;;;;;4.63;4.22;;;;;;;;;;5074426;28;20170;-77
2021/09/10 14:01:01;;;;;;;8.15;4.30;;;;;;;;;;5074249;28;20082;-78
2021/09/10 14:03:27;;;;;;;5.43;4.43;;;;;;;;;;5075099;28;20021;-75
2021/09/10 14:05:53;;;;;;;6.20;4.20;;;;;;;;;;5072365;28;20027;-77
2021/09/10 14:08:21;;;;;;;5.13;4.60;;;;;;;;;;5052738;28;20037;-75
2021/09/10 14:10:50;;;;;;;6.15;5.05;;;;;;;;;;5056797;28;20032;-73
2021/09/10 14:13:17;;;;;;;7.03;4.80;;;;;;;;;;5070159;28;20054;-74
2021/09/10 14:15:43;;;;;;;6.78;4.95;;;;;;;;;;5068829;28;20028;-73
2021/09/10 14:18:13;;;;;;;7.45;4.30;;;;;;;;;;5071669;28;20386;-77
2021/09/10 14:20:39;;;;;;;7.68;5.10;;;;;;;;;;5075627;28;20025;-74
2021/09/10 14:23:05;;;;;;;4.85;4.30;;;;;;;;;;5071467;28;20040;-77
2021/09/10 14:25:32;;;;;;;5.10;4.63;;;;;;;;;;5072412;28;20024;-75
2021/09/10 14:27:59;;;;;;;7.95;5.10;;;;;;;;;;5072096;28;20025;-73
2021/09/10 14:30:25;;;;;;;4.20;3.80;;;;;;;;;;5071005;28;20108;-76
2021/09/10 14:32:51;;;;;;;12.95;5.15;;;;;;;;;;5071812;28;20410;-73